createdAt,value
2023-04-14T00:08:25.829Z,7
2023-04-14T00:23:35.058Z,6.5
2023-04-14T00:38:44.035Z,5.2
2023-04-14T00:53:57.397Z,5.2
2023-04-14T01:09:06.681Z,5.9
2023-04-14T01:24:16.156Z,6.1
2023-04-14T01:39:25.676Z,5.7
2023-04-14T01:54:35.333Z,6
2023-04-14T02:09:45.154Z,5.9
2023-04-14T02:24:57.523Z,6.9
2023-04-14T02:40:06.953Z,6.8
2023-04-14T02:55:16.675Z,7.2
2023-04-14T03:10:26.502Z,7.3
2023-04-14T03:25:36.007Z,7.5
2023-04-14T03:40:45.360Z,7.5
2023-04-14T03:55:55.782Z,7.3
2023-04-14T04:11:04.986Z,7.4
2023-04-14T04:26:14.811Z,7.6
2023-04-14T04:41:25.181Z,9.6
2023-04-14T04:56:34.796Z,9.6
2023-04-14T05:11:44.740Z,11.1
2023-04-14T05:27:14.483Z,11.8
2023-04-14T05:42:25.535Z,11.2
2023-04-14T05:57:35.237Z,10.7
2023-04-14T06:12:45.174Z,11.9
2023-04-14T06:27:57.416Z,12.2
2023-04-14T06:43:07.452Z,14.6
2023-04-14T06:58:17.336Z,11.7
2023-04-14T07:13:27.928Z,11
2023-04-14T07:28:39.170Z,9.6
2023-04-14T07:43:49.135Z,7.5
2023-04-14T07:58:59.614Z,6.6
2023-04-14T08:14:10.635Z,4.6
2023-04-14T08:29:20.794Z,5.4
2023-04-14T08:44:30.939Z,3.5
2023-04-14T08:59:40.964Z,3.2
2023-04-14T09:14:51.232Z,2.9
2023-04-14T09:30:01.140Z,4.1
2023-04-14T09:45:11.693Z,3
2023-04-14T10:00:21.825Z,2.5
2023-04-14T10:15:32.175Z,2
2023-04-14T10:30:42.607Z,2.1
2023-04-14T10:45:52.211Z,1.9
2023-04-14T11:01:02.218Z,2.2
2023-04-14T11:16:12.676Z,2.1
2023-04-14T11:31:23.673Z,2.6
2023-04-14T11:46:34.439Z,2.5
2023-04-14T12:01:45.228Z,3.2
2023-04-14T12:16:57.698Z,2.4
2023-04-14T12:47:17.678Z,2.3
2023-04-14T13:02:27.936Z,2.3
2023-04-14T13:17:39.453Z,2.5
2023-04-14T13:32:49.255Z,4.4
2023-04-14T13:47:58.868Z,4.2
2023-04-14T14:03:08.520Z,3.5
2023-04-14T14:18:18.792Z,3.7
2023-04-14T14:33:28.208Z,3.5
2023-04-14T14:48:38.031Z,3.1
2023-04-14T15:03:48.178Z,2.6
2023-04-14T15:18:59.988Z,1.8
2023-04-14T15:34:10.215Z,2.6
2023-04-14T15:49:23.740Z,2
2023-04-14T16:04:35.233Z,2.6
2023-04-14T16:19:44.144Z,2.5
2023-04-14T16:34:53.022Z,3.1
2023-04-14T16:50:02.965Z,2.9
2023-04-14T17:05:12.673Z,4.1
2023-04-14T17:20:22.778Z,2.9
2023-04-14T17:35:32.087Z,2.6
2023-04-14T17:50:41.715Z,3.7
2023-04-14T18:05:51.096Z,3.4
2023-04-14T18:21:00.364Z,3.7
2023-04-14T18:36:09.637Z,7.3
2023-04-14T18:51:19.404Z,6.5
2023-04-14T19:06:29.303Z,21.7
2023-04-14T19:21:39.182Z,5.5
2023-04-14T19:36:48.624Z,6.2
2023-04-14T19:51:58.093Z,5.5
2023-04-14T20:07:07.315Z,5.5
2023-04-14T20:22:16.965Z,6.6
2023-04-14T20:37:26.299Z,5.7
2023-04-14T20:52:35.905Z,5.1
2023-04-14T21:07:45.495Z,5.3
2023-04-14T21:24:05.573Z,6.9
2023-04-14T21:40:26.377Z,5.5
2023-04-14T21:56:47.114Z,5.3
2023-04-14T22:13:09.689Z,6.8
2023-04-14T22:29:29.848Z,6.1
2023-04-14T22:45:50.321Z,5.8
2023-04-14T23:02:10.878Z,5.4
2023-04-14T23:18:31.991Z,6
2023-04-14T23:34:52.847Z,6.3
2023-04-14T23:51:20.051Z,6.4
